createdAt,value
2019-01-08T00:01:32.745Z,84.37
2019-01-08T00:04:02.683Z,90.23
2019-01-08T00:06:32.893Z,88.07
2019-01-08T00:09:03.125Z,86.67
2019-01-08T00:11:33.885Z,90.57
2019-01-08T00:14:05.745Z,82.33
2019-01-08T00:16:35.901Z,96.50
2019-01-08T00:19:05.957Z,86.90
2019-01-08T00:21:35.980Z,99.60
2019-01-08T00:24:06.237Z,82.67
2019-01-08T00:26:36.265Z,91.23
2019-01-08T00:29:06.361Z,83.40
2019-01-08T00:31:36.388Z,85.03
2019-01-08T00:34:06.500Z,93.77
2019-01-08T00:36:36.520Z,91.03
2019-01-08T00:39:07.672Z,88.03
2019-01-08T00:41:37.673Z,88.67
2019-01-08T00:44:07.761Z,84.47
2019-01-08T00:46:37.761Z,96.47
2019-01-08T00:49:07.985Z,85.07
2019-01-08T00:51:38.092Z,86.40
2019-01-08T00:54:08.199Z,91.53
2019-01-08T00:56:38.198Z,73.23
2019-01-08T00:59:08.474Z,90.03
2019-01-08T01:01:38.667Z,87.83
2019-01-08T01:04:08.808Z,77.57
2019-01-08T01:06:38.761Z,78.33
2019-01-08T01:09:09.029Z,89.17
2019-01-08T01:11:39.273Z,89.13
2019-01-08T01:14:09.357Z,72.87
2019-01-08T01:16:39.244Z,78.97
2019-01-08T01:19:09.437Z,79.10
2019-01-08T01:21:39.449Z,80.03
2019-01-08T01:24:09.517Z,62.67
2019-01-08T01:26:39.528Z,76.50
2019-01-08T01:29:09.438Z,86.87
2019-01-08T01:31:39.351Z,81.87
2019-01-08T01:34:09.231Z,70.77
2019-01-08T01:36:39.128Z,74.37
2019-01-08T01:39:09.209Z,75.00
2019-01-08T01:41:39.206Z,72.97
2019-01-08T01:44:09.162Z,68.80
2019-01-08T01:46:39.268Z,70.10
2019-01-08T01:49:09.242Z,68.67
2019-01-08T01:51:39.228Z,76.40
2019-01-08T01:54:09.284Z,72.77
2019-01-08T01:56:40.820Z,75.70
2019-01-08T01:59:12.847Z,65.00
2019-01-08T02:01:42.841Z,70.60
2019-01-08T02:04:12.971Z,63.73
2019-01-08T02:06:43.084Z,64.93
2019-01-08T02:09:13.053Z,71.93
2019-01-08T02:11:43.147Z,68.10
2019-01-08T02:14:13.165Z,61.40
2019-01-08T02:16:45.904Z,61.90
2019-01-08T02:19:15.864Z,63.03
2019-01-08T02:21:45.981Z,69.23
2019-01-08T02:24:15.976Z,61.97
2019-01-08T02:26:45.980Z,72.23
2019-01-08T02:29:16.712Z,58.20
2019-01-08T02:31:46.889Z,69.03
2019-01-08T02:34:16.874Z,69.03
2019-01-08T02:36:46.998Z,71.27
2019-01-08T02:39:17.149Z,57.10
2019-01-08T02:41:47.300Z,67.33
2019-01-08T02:44:17.245Z,60.07
2019-01-08T02:46:48.960Z,63.00
2019-01-08T02:49:19.011Z,67.30
2019-01-08T02:51:49.052Z,66.40
2019-01-08T02:54:19.230Z,65.43
2019-01-08T02:56:52.245Z,58.67
2019-01-08T02:59:25.159Z,71.60
2019-01-08T03:01:53.849Z,57.87
2019-01-08T03:04:23.849Z,70.27
2019-01-08T03:06:53.810Z,61.90
2019-01-08T03:09:23.770Z,50.07
2019-01-08T03:11:53.890Z,54.43
2019-01-08T03:14:24.223Z,53.73
2019-01-08T03:16:54.181Z,59.73
2019-01-08T03:19:24.093Z,52.20
2019-01-08T03:21:54.063Z,66.27
2019-01-08T03:24:24.040Z,57.37
2019-01-08T03:26:54.094Z,54.20
2019-01-08T03:29:24.079Z,52.00
2019-01-08T03:31:53.981Z,45.00
2019-01-08T03:34:23.927Z,71.60
2019-01-08T03:36:53.845Z,52.20
2019-01-08T03:39:23.768Z,54.57
2019-01-08T03:41:54.169Z,57.80
2019-01-08T03:44:24.249Z,57.37
2019-01-08T03:46:54.200Z,56.30
2019-01-08T03:49:24.228Z,58.87
2019-01-08T03:51:54.308Z,50.50
2019-01-08T03:54:24.298Z,56.60
2019-01-08T03:56:54.260Z,61.53
2019-01-08T03:59:24.354Z,58.53
2019-01-08T04:01:54.320Z,47.60
2019-01-08T04:04:24.262Z,52.33
2019-01-08T04:06:54.173Z,60.30
2019-01-08T04:09:24.042Z,49.27
2019-01-08T04:11:53.942Z,54.03
2019-01-08T04:14:23.823Z,60.27
2019-01-08T04:16:53.724Z,57.13
2019-01-08T04:19:23.677Z,52.97
2019-01-08T04:21:53.569Z,58.43
2019-01-08T04:24:23.531Z,68.37
2019-01-08T04:26:53.433Z,62.33
2019-01-08T04:29:23.379Z,57.00
2019-01-08T04:31:53.268Z,51.37
2019-01-08T04:34:23.658Z,72.97
2019-01-08T04:36:53.535Z,61.30
2019-01-08T04:39:24.968Z,63.63
2019-01-08T04:41:55.550Z,63.93
2019-01-08T04:44:25.421Z,67.17
2019-01-08T04:46:56.321Z,63.70
2019-01-08T04:49:26.220Z,66.27
2019-01-08T04:51:56.171Z,63.43
2019-01-08T04:54:26.046Z,71.27
2019-01-08T04:56:57.846Z,60.53
2019-01-08T04:59:27.869Z,66.10
2019-01-08T05:01:57.780Z,74.63
2019-01-08T05:04:27.639Z,68.50
2019-01-08T05:06:57.623Z,68.93
2019-01-08T05:09:27.536Z,66.70
2019-01-08T05:11:57.482Z,64.40
2019-01-08T05:14:27.373Z,59.77
2019-01-08T05:16:57.278Z,65.87
2019-01-08T05:19:27.182Z,60.83
2019-01-08T05:21:58.975Z,64.97
2019-01-08T05:24:28.859Z,57.93
2019-01-08T05:26:58.772Z,65.03
2019-01-08T05:29:28.613Z,64.43
2019-01-08T05:31:58.514Z,60.83
2019-01-08T05:34:28.406Z,65.43
2019-01-08T05:36:58.341Z,57.23
2019-01-08T05:39:28.461Z,58.50
2019-01-08T05:41:59.970Z,60.17
2019-01-08T05:44:29.943Z,53.23
2019-01-08T05:46:59.864Z,62.87
2019-01-08T05:49:29.754Z,71.97
2019-01-08T05:52:00.628Z,58.10
2019-01-08T05:54:30.639Z,61.23
2019-01-08T05:57:00.622Z,64.30
2019-01-08T05:59:30.661Z,63.57
2019-01-08T06:02:00.644Z,57.70
2019-01-08T06:04:30.567Z,59.40
2019-01-08T06:07:00.564Z,62.67
2019-01-08T06:09:30.444Z,65.50
2019-01-08T06:12:01.941Z,63.40
2019-01-08T06:14:31.914Z,66.13
2019-01-08T06:17:01.809Z,60.43
2019-01-08T06:19:31.768Z,59.63
2019-01-08T06:22:01.923Z,68.17
2019-01-08T06:24:31.968Z,63.07
2019-01-08T06:27:01.930Z,51.57
2019-01-08T06:29:31.965Z,56.30
2019-01-08T06:32:01.848Z,72.20
2019-01-08T06:34:31.768Z,60.67
2019-01-08T06:37:01.756Z,74.63
2019-01-08T06:39:31.755Z,70.60
2019-01-08T06:42:01.769Z,67.17
2019-01-08T06:44:31.828Z,69.70
2019-01-08T06:47:03.016Z,77.40
2019-01-08T06:49:32.964Z,59.70
2019-01-08T06:52:02.937Z,66.93
2019-01-08T06:54:32.911Z,67.83
2019-01-08T06:57:02.956Z,75.27
2019-01-08T06:59:33.039Z,66.87
2019-01-08T07:02:03.215Z,74.40
2019-01-08T07:04:33.177Z,70.87
2019-01-08T07:07:03.395Z,66.47
2019-01-08T07:09:33.435Z,67.77
2019-01-08T07:12:03.618Z,90.33
2019-01-08T07:14:33.689Z,78.10
2019-01-08T07:17:03.567Z,57.30
2019-01-08T07:19:33.797Z,72.47
2019-01-08T07:22:03.913Z,64.73
2019-01-08T07:24:33.996Z,61.97
2019-01-08T07:27:04.205Z,71.53
2019-01-08T07:29:34.420Z,67.03
2019-01-08T07:32:04.461Z,78.97
2019-01-08T07:34:34.475Z,70.00
2019-01-08T07:37:04.552Z,72.37
2019-01-08T07:39:34.510Z,66.23
2019-01-08T07:42:04.617Z,78.43
2019-01-08T07:44:46.526Z,62.43
2019-01-08T07:47:17.927Z,78.00
2019-01-08T07:49:48.329Z,78.83
2019-01-08T07:52:18.755Z,72.13
2019-01-08T07:54:48.747Z,64.47
2019-01-08T07:57:20.717Z,75.10
2019-01-08T07:59:50.831Z,66.20
2019-01-08T08:02:20.848Z,77.60
2019-01-08T08:04:50.925Z,76.00
2019-01-08T08:07:20.941Z,80.13
2019-01-08T08:09:50.935Z,66.60
2019-01-08T08:12:20.895Z,76.60
2019-01-08T08:14:51.062Z,67.87
2019-01-08T08:17:21.015Z,71.27
2019-01-08T08:19:51.202Z,54.30
2019-01-08T08:22:21.337Z,63.93
2019-01-08T08:24:51.316Z,78.90
2019-01-08T08:27:21.412Z,115.53
2019-01-08T08:29:51.460Z,85.03
2019-01-08T08:32:21.695Z,75.53
2019-01-08T08:34:51.880Z,66.50
2019-01-08T08:37:21.936Z,73.30
2019-01-08T08:39:52.032Z,71.23
2019-01-08T08:42:22.076Z,76.33
2019-01-08T08:44:52.031Z,77.83
2019-01-08T08:47:22.003Z,76.63
2019-01-08T08:49:52.035Z,77.00
2019-01-08T08:52:22.102Z,83.17
2019-01-08T08:54:52.112Z,81.53
2019-01-08T08:57:22.006Z,75.63
2019-01-08T08:59:51.963Z,72.77
2019-01-08T09:02:21.976Z,79.57
2019-01-08T09:04:53.055Z,70.60
2019-01-08T09:07:23.117Z,80.13
2019-01-08T09:09:53.184Z,70.50
2019-01-08T09:12:23.298Z,70.27
2019-01-08T09:14:53.244Z,82.13
2019-01-08T09:17:23.372Z,74.70
2019-01-08T09:19:53.819Z,68.93
2019-01-08T09:22:23.857Z,81.87
2019-01-08T09:24:53.801Z,72.90
2019-01-08T09:27:23.902Z,82.17
2019-01-08T09:29:54.139Z,78.90
2019-01-08T09:32:24.707Z,76.83
2019-01-08T09:34:54.791Z,78.43
2019-01-08T09:37:24.827Z,75.87
2019-01-08T09:39:55.474Z,73.60
2019-01-08T09:42:26.205Z,81.00
2019-01-08T09:45:01.344Z,69.13
2019-01-08T09:47:34.526Z,82.33
2019-01-08T09:50:08.775Z,72.87
2019-01-08T09:52:39.561Z,70.70
2019-01-08T09:55:09.733Z,76.73
2019-01-08T09:57:40.488Z,81.53
2019-01-08T10:00:10.958Z,79.33
2019-01-08T10:02:41.016Z,80.80
2019-01-08T10:05:11.135Z,75.20
2019-01-08T10:07:41.147Z,93.40
2019-01-08T10:10:11.170Z,70.67
2019-01-08T10:12:41.216Z,78.17
2019-01-08T10:15:11.216Z,74.30
2019-01-08T10:17:41.250Z,67.13
2019-01-08T10:20:11.333Z,71.67
2019-01-08T10:22:41.308Z,70.60
2019-01-08T10:25:11.374Z,81.37
2019-01-08T10:27:41.367Z,80.07
2019-01-08T10:30:11.708Z,77.57
2019-01-08T10:32:41.727Z,78.10
2019-01-08T10:35:11.789Z,78.93
2019-01-08T10:37:41.870Z,61.80
2019-01-08T10:40:12.075Z,74.07
2019-01-08T10:42:42.190Z,75.67
2019-01-08T10:45:12.411Z,71.87
2019-01-08T10:47:42.624Z,85.03
2019-01-08T10:50:12.926Z,74.93
2019-01-08T10:52:43.180Z,75.13
2019-01-08T10:55:13.307Z,76.00
2019-01-08T10:57:43.358Z,70.53
2019-01-08T11:00:13.774Z,78.17
2019-01-08T11:02:43.897Z,70.20
2019-01-08T11:05:13.945Z,75.67
2019-01-08T11:07:43.989Z,74.90
2019-01-08T11:10:14.293Z,79.37
2019-01-08T11:12:44.253Z,69.20
2019-01-08T11:15:15.995Z,72.37
2019-01-08T11:17:45.893Z,69.27
2019-01-08T11:20:15.923Z,61.87
2019-01-08T11:22:46.064Z,70.43
2019-01-08T11:25:16.114Z,73.27
2019-01-08T11:27:46.233Z,71.57
2019-01-08T11:30:16.267Z,69.97
2019-01-08T11:32:46.358Z,67.53
2019-01-08T11:35:16.335Z,73.43
2019-01-08T11:37:46.349Z,66.83
2019-01-08T11:40:18.080Z,73.90
2019-01-08T11:42:48.304Z,69.77
2019-01-08T11:45:18.348Z,63.20
2019-01-08T11:47:48.322Z,61.93
2019-01-08T11:50:18.354Z,65.33
2019-01-08T11:52:48.405Z,64.70
2019-01-08T11:55:18.434Z,67.30
2019-01-08T11:57:50.149Z,73.10
2019-01-08T12:00:20.272Z,76.10
2019-01-08T12:02:50.248Z,67.80
2019-01-08T12:05:20.243Z,61.60
2019-01-08T12:07:50.274Z,76.13
2019-01-08T12:10:20.298Z,68.97
2019-01-08T12:12:50.486Z,73.53
2019-01-08T12:15:20.594Z,64.10
2019-01-08T12:17:50.662Z,65.90
2019-01-08T12:20:22.712Z,69.50
2019-01-08T12:22:53.784Z,66.13
2019-01-08T12:25:23.921Z,60.83
2019-01-08T12:27:53.928Z,63.13
2019-01-08T12:30:25.196Z,65.63
2019-01-08T12:32:55.401Z,61.80
2019-01-08T12:35:25.437Z,67.20
2019-01-08T12:37:55.539Z,64.43
2019-01-08T12:40:27.124Z,63.10
2019-01-08T12:42:59.368Z,62.07
2019-01-08T12:45:29.446Z,64.77
2019-01-08T12:47:59.420Z,61.20
2019-01-08T12:50:29.526Z,57.10
2019-01-08T12:52:59.614Z,62.13
2019-01-08T12:55:29.682Z,67.93
2019-01-08T12:57:59.667Z,54.73
2019-01-08T13:00:29.769Z,68.80
2019-01-08T13:03:00.057Z,56.23
2019-01-08T13:05:30.137Z,61.60
2019-01-08T13:08:00.200Z,55.30
2019-01-08T13:10:32.007Z,62.30
2019-01-08T13:13:02.025Z,63.43
2019-01-08T13:15:32.110Z,64.13
2019-01-08T13:18:02.173Z,63.97
2019-01-08T13:20:34.109Z,71.83
2019-01-08T13:23:04.229Z,64.47
2019-01-08T13:25:34.315Z,66.10
2019-01-08T13:28:04.489Z,64.10
2019-01-08T13:30:34.559Z,69.60
2019-01-08T13:33:04.627Z,62.80
2019-01-08T13:35:34.825Z,60.90
2019-01-08T13:38:04.943Z,60.13
2019-01-08T13:40:35.308Z,62.07
2019-01-08T13:43:05.505Z,59.80
2019-01-08T13:45:35.563Z,75.33
2019-01-08T13:48:05.588Z,63.17
2019-01-08T13:50:35.596Z,57.33
2019-01-08T13:53:05.954Z,57.87
2019-01-08T13:55:37.127Z,60.37
2019-01-08T13:58:07.235Z,68.93
2019-01-08T14:00:37.332Z,62.80
2019-01-08T14:03:07.593Z,59.00
2019-01-08T14:05:37.796Z,57.53
2019-01-08T14:08:08.939Z,53.47
2019-01-08T14:10:39.141Z,54.33
2019-01-08T14:13:09.221Z,58.17
2019-01-08T14:15:39.283Z,55.50
2019-01-08T14:18:09.319Z,58.73
2019-01-08T14:20:41.758Z,60.87
2019-01-08T14:23:11.786Z,59.10
2019-01-08T14:25:42.043Z,63.33
2019-01-08T14:28:12.206Z,60.33
2019-01-08T14:30:42.437Z,64.37
2019-01-08T14:33:12.485Z,60.77
2019-01-08T14:35:42.703Z,57.77
2019-01-08T14:38:12.698Z,58.07
2019-01-08T14:40:43.911Z,59.13
2019-01-08T14:43:14.486Z,59.43
2019-01-08T14:45:44.711Z,57.07
2019-01-08T14:48:14.903Z,61.13
2019-01-08T14:50:45.232Z,53.70
2019-01-08T14:53:18.117Z,55.40
2019-01-08T14:55:48.217Z,63.37
2019-01-08T14:58:18.537Z,55.50
2019-01-08T15:00:48.766Z,59.80
2019-01-08T15:03:18.956Z,58.53
2019-01-08T15:05:49.247Z,63.00
2019-01-08T15:08:19.347Z,58.30
2019-01-08T15:10:49.576Z,62.33
2019-01-08T15:13:19.858Z,64.10
2019-01-08T15:15:50.107Z,59.97
2019-01-08T15:18:20.691Z,63.83
2019-01-08T15:20:50.995Z,63.00
2019-01-08T15:23:21.208Z,66.63
2019-01-08T15:25:51.416Z,60.50
2019-01-08T15:28:21.526Z,59.93
2019-01-08T15:30:51.663Z,59.40
2019-01-08T15:33:21.717Z,58.90
2019-01-08T15:35:51.949Z,67.80
2019-01-08T15:38:24.359Z,72.33
2019-01-08T15:40:54.305Z,60.33
2019-01-08T15:43:24.344Z,62.23
2019-01-08T15:45:54.579Z,66.53
2019-01-08T15:48:25.197Z,69.20
2019-01-08T15:50:55.290Z,62.57
2019-01-08T15:53:25.349Z,63.97
2019-01-08T15:55:55.630Z,67.97
2019-01-08T15:58:25.883Z,62.03
2019-01-08T16:00:59.590Z,73.73
2019-01-08T16:03:29.691Z,63.73
2019-01-08T16:06:00.232Z,62.40
2019-01-08T16:08:30.427Z,72.53
2019-01-08T16:11:02.163Z,63.87
2019-01-08T16:13:35.284Z,65.83
2019-01-08T16:16:05.549Z,75.07
2019-01-08T16:18:35.600Z,62.57
2019-01-08T16:21:06.205Z,65.33
2019-01-08T16:23:36.558Z,72.33
2019-01-08T16:26:06.580Z,66.67
2019-01-08T16:28:36.695Z,65.10
2019-01-08T16:31:06.899Z,62.20
2019-01-08T16:33:36.901Z,56.07
2019-01-08T16:36:07.133Z,68.57
2019-01-08T16:38:38.089Z,64.77
2019-01-08T16:41:08.231Z,67.97
2019-01-08T16:43:38.430Z,64.93
2019-01-08T16:46:09.955Z,65.13
2019-01-08T16:48:40.179Z,69.37
2019-01-08T16:51:17.238Z,77.13
2019-01-08T16:53:53.815Z,67.67
2019-01-08T16:56:32.859Z,72.87
2019-01-08T16:59:12.940Z,67.03
2019-01-08T17:01:48.900Z,72.63
2019-01-08T17:04:36.650Z,74.23
2019-01-08T17:07:23.674Z,64.60
2019-01-08T17:10:12.163Z,67.00
2019-01-08T17:13:02.003Z,70.60
2019-01-08T17:15:40.401Z,72.07
2019-01-08T17:18:29.122Z,68.10
2019-01-08T17:21:23.314Z,60.87
2019-01-08T17:24:15.611Z,72.20
2019-01-08T17:27:03.369Z,63.73
2019-01-08T17:29:54.909Z,63.43
2019-01-08T17:32:39.467Z,67.97
2019-01-08T17:35:23.741Z,64.60
2019-01-08T17:38:22.867Z,65.50
2019-01-08T17:41:09.029Z,62.77
2019-01-08T17:43:56.016Z,65.93
2019-01-08T17:46:47.140Z,63.13
2019-01-08T17:49:35.742Z,72.17
2019-01-08T17:52:33.276Z,68.43
2019-01-08T17:55:17.398Z,77.53
2019-01-08T17:57:54.595Z,70.47
2019-01-08T18:00:27.851Z,67.83
2019-01-08T18:02:58.319Z,64.30
2019-01-08T18:05:28.565Z,79.90
2019-01-08T18:07:59.050Z,82.07
2019-01-08T18:10:29.357Z,76.80
2019-01-08T18:13:01.260Z,74.03
2019-01-08T18:15:32.058Z,79.53
2019-01-08T18:18:05.116Z,75.93
2019-01-08T18:20:37.577Z,72.77
2019-01-08T18:23:07.777Z,68.17
2019-01-08T18:25:37.995Z,74.53
2019-01-08T18:28:09.635Z,70.63
2019-01-08T18:30:40.820Z,72.10
2019-01-08T18:33:12.230Z,71.40
2019-01-08T18:35:43.772Z,67.30
2019-01-08T18:38:15.685Z,68.17
2019-01-08T18:40:53.050Z,63.90
2019-01-08T18:43:27.558Z,69.20
2019-01-08T18:45:58.788Z,81.53
2019-01-08T18:48:32.350Z,80.90
2019-01-08T18:51:03.781Z,89.43
2019-01-08T18:53:38.225Z,77.00
2019-01-08T18:56:11.032Z,73.83
2019-01-08T18:58:48.622Z,80.40
2019-01-08T19:01:19.398Z,71.20
2019-01-08T19:03:50.493Z,74.93
2019-01-08T19:06:20.679Z,80.63
2019-01-08T19:09:22.922Z,91.63
2019-01-08T19:11:53.458Z,71.63
2019-01-08T19:14:25.897Z,67.40
2019-01-08T19:16:57.222Z,77.17
2019-01-08T19:19:27.394Z,70.60
2019-01-08T19:21:57.469Z,66.00
2019-01-08T19:24:27.569Z,68.60
2019-01-08T19:26:58.605Z,66.13
2019-01-08T19:29:29.078Z,68.63
2019-01-08T19:31:59.235Z,66.53
2019-01-08T19:34:29.417Z,64.50
2019-01-08T19:36:59.704Z,67.23
2019-01-08T19:39:29.740Z,71.47
2019-01-08T19:42:00.039Z,69.90
2019-01-08T19:44:29.986Z,71.53
2019-01-08T19:47:00.154Z,66.17
2019-01-08T19:49:30.148Z,71.03
2019-01-08T19:52:00.132Z,69.63
2019-01-08T19:54:30.460Z,72.53
2019-01-08T19:57:19.265Z,70.07
2019-01-08T19:59:49.326Z,68.07
2019-01-08T20:02:19.369Z,74.13
2019-01-08T20:04:49.520Z,78.03
2019-01-08T20:07:19.686Z,71.10
2019-01-08T20:09:49.862Z,71.00
2019-01-08T20:12:20.005Z,72.77
2019-01-08T20:14:50.256Z,65.87
2019-01-08T20:17:20.519Z,68.90
2019-01-08T20:19:50.667Z,61.60
2019-01-08T20:22:20.805Z,74.37
2019-01-08T20:24:50.977Z,69.70
2019-01-08T20:27:21.156Z,76.13
2019-01-08T20:29:51.128Z,77.57
2019-01-08T20:32:22.195Z,77.63
2019-01-08T20:34:52.114Z,71.20
2019-01-08T20:37:29.496Z,69.03
2019-01-08T20:40:00.016Z,81.63
2019-01-08T20:42:31.844Z,68.80
2019-01-08T20:45:01.968Z,72.17
2019-01-08T20:47:32.369Z,73.57
2019-01-08T20:50:02.473Z,73.47
2019-01-08T20:52:32.677Z,79.17
2019-01-08T20:55:02.675Z,79.50
2019-01-08T20:57:32.809Z,79.03
2019-01-08T21:00:03.195Z,74.63
2019-01-08T21:02:34.785Z,78.60
2019-01-08T21:05:04.982Z,82.33
2019-01-08T21:07:35.254Z,82.00
2019-01-08T21:10:05.867Z,71.77
2019-01-08T21:12:36.582Z,73.77
2019-01-08T21:15:06.985Z,74.23
2019-01-08T21:17:37.076Z,73.40
2019-01-08T21:20:08.961Z,75.93
2019-01-08T21:22:39.590Z,81.37
2019-01-08T21:25:11.046Z,75.80
2019-01-08T21:27:41.114Z,78.87
2019-01-08T21:30:11.390Z,82.03
2019-01-08T21:32:41.498Z,80.80
2019-01-08T21:35:11.596Z,73.83
2019-01-08T21:37:42.056Z,79.03
2019-01-08T21:40:13.837Z,74.83
2019-01-08T21:42:50.493Z,88.77
2019-01-08T21:45:21.682Z,75.00
2019-01-08T21:47:51.762Z,77.07
2019-01-08T21:50:21.815Z,79.00
2019-01-08T21:52:51.862Z,76.73
2019-01-08T21:55:23.437Z,69.70
2019-01-08T21:57:53.648Z,68.40
2019-01-08T22:00:24.595Z,71.33
2019-01-08T22:02:55.146Z,79.07
2019-01-08T22:05:25.277Z,68.53
2019-01-08T22:07:55.371Z,74.23
2019-01-08T22:10:25.611Z,72.97
2019-01-08T22:12:55.944Z,65.87
2019-01-08T22:15:26.082Z,75.37
2019-01-08T22:17:56.348Z,74.63
2019-01-08T22:20:26.477Z,65.77
2019-01-08T22:22:56.516Z,71.30
2019-01-08T22:25:26.656Z,81.93
2019-01-08T22:27:57.211Z,69.53
2019-01-08T22:30:27.175Z,70.17
2019-01-08T22:32:57.497Z,72.07
2019-01-08T22:35:27.759Z,69.80
2019-01-08T22:37:57.869Z,73.37
2019-01-08T22:40:28.065Z,68.33
2019-01-08T22:42:58.309Z,67.27
2019-01-08T22:45:28.947Z,73.80
2019-01-08T22:47:59.350Z,65.40
2019-01-08T22:50:29.556Z,66.27
2019-01-08T22:52:59.728Z,75.53
2019-01-08T22:55:29.788Z,57.77
2019-01-08T22:58:02.694Z,71.97
2019-01-08T23:00:50.471Z,67.53
2019-01-08T23:03:21.880Z,66.03
2019-01-08T23:05:52.631Z,69.57
2019-01-08T23:08:23.241Z,70.17
2019-01-08T23:10:53.695Z,66.97
2019-01-08T23:13:23.826Z,63.23
2019-01-08T23:15:53.935Z,64.03
2019-01-08T23:18:24.054Z,69.17
2019-01-08T23:20:53.994Z,64.17
2019-01-08T23:23:25.054Z,65.00
2019-01-08T23:25:55.196Z,72.17
2019-01-08T23:28:25.342Z,67.33
2019-01-08T23:30:56.514Z,68.13
2019-01-08T23:33:26.589Z,80.57
2019-01-08T23:35:56.741Z,73.90
2019-01-08T23:38:26.965Z,68.50
2019-01-08T23:40:57.142Z,78.37
2019-01-08T23:43:27.355Z,78.47
2019-01-08T23:45:57.367Z,81.33
2019-01-08T23:48:27.498Z,94.77
2019-01-08T23:50:57.545Z,79.97
2019-01-08T23:53:36.030Z,78.40
2019-01-08T23:56:06.974Z,67.77
2019-01-08T23:58:37.448Z,76.77
